Time;durP1;ratioP1;P1;durP2;ratioP2;P2;SDS_P1;SDS_P2;PMS_P1;PMS_P2;Temp;Humidity;BMP_temperature;BMP_pressure;BME280_temperature;BME280_humidity;BME280_pressure;Samples;Min_cycle;Max_cycle;Signal;HPM_P1;HPM_P2
2022/06/29 04:30:29;;;;;;;;;2.00;2.00;;;;;20.01;52.52;101067.69;5056547;27;46484;-74
2022/06/29 04:32:55;;;;;;;;;2.50;2.00;;;;;20.06;52.58;101060.06;4995870;28;45420;-75
2022/06/29 04:35:21;;;;;;;;;6.50;3.75;;;;;20.15;52.31;101072.94;4995512;28;45357;-74
2022/06/29 04:37:46;;;;;;;;;4.50;3.00;;;;;20.16;52.28;101060.19;4978308;28;45387;-74
2022/06/29 04:40:12;;;;;;;;;2.00;2.00;;;;;20.29;52.15;101067.22;4995937;28;45213;-75
2022/06/29 04:42:37;;;;;;;;;2.75;2.75;;;;;20.28;51.70;101051.88;4995963;28;45471;-74
2022/06/29 04:45:03;;;;;;;;;2.75;2.75;;;;;20.41;51.62;101061.81;4995485;28;45318;-74
2022/06/29 04:47:28;;;;;;;;;4.00;4.00;;;;;20.42;51.46;101049.88;5014702;28;45378;-75
2022/06/29 04:49:54;;;;;;;;;3.00;3.00;;;;;20.43;51.62;101057.94;5015437;28;45580;-75
2022/06/29 04:52:19;;;;;;;;;3.00;3.00;;;;;20.43;51.90;101068.84;5015759;28;45415;-75
2022/06/29 04:54:45;;;;;;;;;3.50;3.50;;;;;20.36;52.10;101056.72;4995124;28;45700;-75
2022/06/29 04:57:10;;;;;;;;;4.50;3.00;;;;;20.35;52.11;101066.75;4996452;28;45360;-73
2022/06/29 04:59:35;;;;;;;;;3.00;3.00;;;;;20.30;51.91;101060.78;4996213;28;45615;-75
2022/06/29 05:02:01;;;;;;;;;2.00;2.00;;;;;20.25;51.72;101065.72;4995752;28;45389;-75
2022/06/29 05:04:26;;;;;;;;;3.25;2.75;;;;;20.16;51.90;101047.41;4995303;28;45321;-74
2022/06/29 05:06:52;;;;;;;;;6.50;3.25;;;;;20.16;51.39;101062.91;4995408;28;45424;-73
2022/06/29 05:09:17;;;;;;;;;4.00;2.00;;;;;20.12;51.43;101061.41;4994987;28;45446;-73
2022/06/29 05:11:42;;;;;;;;;2.00;2.00;;;;;20.08;51.53;101049.88;4977461;28;47372;-75
2022/06/29 05:14:11;;;;;;;;;3.50;3.50;;;;;20.11;51.07;101057.81;4994981;28;45350;-76
2022/06/29 05:16:37;;;;;;;;;2.00;2.00;;;;;20.07;50.45;101053.63;4995472;28;45247;-75
2022/06/29 05:19:03;;;;;;;;;3.25;2.50;;;;;20.08;50.53;101057.19;4977341;28;45917;-76
2022/06/29 05:21:30;;;;;;;;;2.00;2.00;;;;;20.02;50.52;101061.28;4994743;28;46192;-77
2022/06/29 05:23:55;;;;;;;;;2.25;2.25;;;;;19.96;50.60;101057.19;4994349;28;45447;-73
2022/06/29 05:26:20;;;;;;;;;2.75;2.00;;;;;20.02;49.90;101064.00;4995152;28;45594;-74
2022/06/29 05:28:47;;;;;;;;;2.00;2.00;;;;;19.94;49.69;101059.16;4994887;28;45319;-74
2022/06/29 05:31:13;;;;;;;;;5.00;3.50;;;;;19.79;49.85;101049.50;5000937;28;45459;-78
2022/06/29 05:33:38;;;;;;;;;2.50;2.50;;;;;19.81;49.70;101066.59;5014762;28;45395;-78
2022/06/29 05:36:08;;;;;;;;;2.75;2.75;;;;;19.67;50.27;101077.66;5014714;28;45985;-74
2022/06/29 05:38:35;;;;;;;;;3.00;3.00;;;;;19.65;50.53;101077.78;5014527;28;45219;-71
2022/06/29 05:41:00;;;;;;;;;3.25;3.25;;;;;19.55;50.33;101065.06;5014635;28;46152;-73
2022/06/29 05:43:27;;;;;;;;;2.00;2.00;;;;;19.58;50.36;101056.63;5014523;28;45400;-71
2022/06/29 05:45:53;;;;;;;;;3.50;2.25;;;;;19.74;50.03;101067.16;5014963;28;45469;-74
2022/06/29 05:48:20;;;;;;;;;3.25;2.00;;;;;19.72;49.79;101069.16;4996193;28;46328;-71
2022/06/29 05:50:45;;;;;;;;;5.25;2.00;;;;;19.64;50.18;101067.06;5014634;28;46480;-73
2022/06/29 05:53:10;;;;;;;;;4.00;3.00;;;;;19.68;50.11;101076.69;5014629;28;45393;-73
2022/06/29 05:55:36;;;;;;;;;2.00;2.00;;;;;19.70;50.17;101082.00;5014481;28;45271;-73
2022/06/29 05:58:01;;;;;;;;;2.00;2.00;;;;;19.74;49.65;101069.88;5013495;28;45424;-73
2022/06/29 06:00:26;;;;;;;;;1.00;1.00;;;;;19.81;50.04;101071.16;4996389;28;47272;-72
2022/06/29 06:02:52;;;;;;;;;2.50;2.50;;;;;19.95;49.96;101058.19;5013778;28;45275;-74
2022/06/29 06:05:18;;;;;;;;;3.00;3.00;;;;;20.00;49.72;101052.34;5013644;28;45502;-73
2022/06/29 06:07:43;;;;;;;;;3.00;3.00;;;;;20.18;49.04;101063.63;5014033;28;45409;-73
2022/06/29 06:10:09;;;;;;;;;3.00;3.00;;;;;20.28;48.63;101065.47;5014372;28;46179;-74
2022/06/29 06:12:34;;;;;;;;;2.00;2.00;;;;;20.38;48.09;101061.06;5014498;28;45436;-74
2022/06/29 06:15:01;;;;;;;;;1.75;1.75;;;;;20.42;48.03;101060.78;5014441;28;45817;-75
2022/06/29 06:17:28;;;;;;;;;2.25;2.25;;;;;20.46;47.51;101057.69;4996509;28;45531;-72
2022/06/29 06:19:58;;;;;;;;;1.50;1.50;;;;;20.50;48.55;101052.88;5013692;28;45408;-74
2022/06/29 06:22:23;;;;;;;;;2.00;1.25;;;;;20.52;47.97;101053.59;5013666;28;45385;-73
2022/06/29 06:24:48;;;;;;;;;2.00;2.00;;;;;20.61;48.02;101061.88;5014180;28;45525;-72
2022/06/29 06:27:14;;;;;;;;;3.00;3.00;;;;;20.67;47.44;101069.53;5014158;28;45400;-73
2022/06/29 06:29:40;;;;;;;;;4.00;2.00;;;;;20.66;47.23;101067.81;5013891;28;45277;-73
2022/06/29 06:32:06;;;;;;;;;1.50;1.50;;;;;20.66;47.20;101069.69;5013838;28;45499;-71
2022/06/29 06:34:31;;;;;;;;;1.75;1.75;;;;;20.64;47.01;101067.09;5014203;28;45451;-71
2022/06/29 06:36:57;;;;;;;;;1.75;1.75;;;;;20.67;46.93;101064.09;5013526;28;45332;-71
2022/06/29 06:39:23;;;;;;;;;1.50;1.50;;;;;20.76;46.97;101073.34;5013519;28;45679;-73
2022/06/29 06:41:48;;;;;;;;;1.50;1.50;;;;;20.76;46.34;101074.22;5013972;28;45388;-73
2022/06/29 06:44:14;;;;;;;;;0.75;0.75;;;;;20.81;46.34;101072.97;5014218;28;45357;-72
2022/06/29 06:46:41;;;;;;;;;4.50;1.50;;;;;20.76;46.20;101057.00;5014134;28;45325;-72
2022/06/29 06:49:06;;;;;;;;;1.00;1.00;;;;;20.80;46.43;101057.63;5014048;28;46213;-72
2022/06/29 06:51:32;;;;;;;;;1.25;1.25;;;;;21.00;46.12;101070.47;5013666;28;45234;-72
2022/06/29 06:53:57;;;;;;;;;1.00;1.00;;;;;21.04;46.00;101067.31;5013874;28;45957;-73
2022/06/29 06:56:22;;;;;;;;;2.25;1.75;;;;;21.06;46.04;101065.34;5013346;28;45444;-71
2022/06/29 06:58:48;;;;;;;;;1.25;1.00;;;;;21.08;46.00;101051.59;5013599;28;45271;-72
2022/06/29 07:01:13;;;;;;;;;4.00;1.75;;;;;21.11;45.94;101054.91;5013758;28;45223;-72
2022/06/29 07:03:38;;;;;;;;;1.75;1.75;;;;;21.13;46.16;101062.97;5013969;28;45214;-72
2022/06/29 07:06:06;;;;;;;;;0.75;0.75;;;;;21.14;45.55;101061.97;5013266;28;45250;-73
2022/06/29 07:08:32;;;;;;;;;3.50;1.50;;;;;21.20;45.64;101052.41;5015280;28;46217;-72
2022/06/29 07:10:59;;;;;;;;;2.25;1.00;;;;;21.26;45.87;101055.50;5016791;28;45396;-71
2022/06/29 07:13:24;;;;;;;;;2.75;2.00;;;;;21.33;44.82;101061.31;5017248;28;45398;-70
2022/06/29 07:15:50;;;;;;;;;3.50;0.75;;;;;21.39;44.32;101069.81;5016654;28;45288;-73
2022/06/29 07:18:15;;;;;;;;;1.00;1.00;;;;;21.42;44.19;101063.25;5016927;28;45659;-72
2022/06/29 07:20:41;;;;;;;;;1.75;1.75;;;;;21.42;44.21;101058.66;5016474;28;45312;-71
2022/06/29 07:23:06;;;;;;;;;1.50;1.50;;;;;21.47;44.02;101061.84;5016999;28;45619;-73
2022/06/29 07:25:31;;;;;;;;;2.50;1.00;;;;;21.49;44.01;101056.25;5016736;28;45276;-74
2022/06/29 07:27:57;;;;;;;;;1.00;1.00;;;;;21.61;43.99;101062.47;5017742;28;46333;-72
2022/06/29 07:30:22;;;;;;;;;2.00;1.75;;;;;21.58;43.85;101051.84;5036498;28;45217;-74
2022/06/29 07:32:47;;;;;;;;;2.50;1.00;;;;;21.57;44.11;101056.44;5036674;28;45439;-72
2022/06/29 07:35:13;;;;;;;;;1.00;1.00;;;;;21.62;43.63;101058.75;5036261;28;45315;-72
2022/06/29 07:37:38;;;;;;;;;2.00;2.00;;;;;21.65;43.12;101051.19;5036526;28;45929;-72
2022/06/29 07:40:04;;;;;;;;;1.00;1.00;;;;;21.72;43.38;101057.84;5018319;28;45306;-73
2022/06/29 07:42:32;;;;;;;;;1.00;1.00;;;;;21.71;43.45;101060.69;5037130;28;45683;-71
2022/06/29 07:44:58;;;;;;;;;3.00;1.00;;;;;21.77;43.93;101058.31;5018386;28;46261;-73
2022/06/29 07:47:23;;;;;;;;;1.00;1.00;;;;;21.84;43.71;101044.97;5036570;28;45376;-73
2022/06/29 07:49:48;;;;;;;;;1.25;1.25;;;;;21.92;43.72;101042.44;5036142;28;45702;-72
2022/06/29 07:52:13;;;;;;;;;1.00;1.00;;;;;21.99;43.03;101051.84;5036663;28;45540;-72
2022/06/29 07:54:39;;;;;;;;;1.75;1.75;;;;;22.01;43.01;101049.84;5017908;28;45489;-73
2022/06/29 07:57:04;;;;;;;;;1.00;1.00;;;;;22.07;43.26;101040.22;5035997;28;45459;-73
2022/06/29 07:59:30;;;;;;;;;2.25;1.00;;;;;22.06;42.14;101050.28;5036253;28;45505;-72
2022/06/29 08:01:55;;;;;;;;;1.00;1.00;;;;;22.11;42.64;101053.50;5036948;28;45524;-72
2022/06/29 08:04:20;;;;;;;;;1.50;1.50;;;;;22.16;42.30;101045.75;5036025;28;45483;-72
2022/06/29 08:06:45;;;;;;;;;1.00;1.00;;;;;22.20;42.31;101052.63;5035839;28;46155;-72
2022/06/29 08:09:11;;;;;;;;;1.00;1.00;;;;;22.21;42.71;101048.03;5017617;28;45826;-73
2022/06/29 08:11:36;;;;;;;;;1.50;1.50;;;;;22.23;42.44;101051.50;5036303;28;45436;-73
2022/06/29 08:14:02;;;;;;;;;2.75;1.50;;;;;22.20;43.01;101044.44;5036008;28;45323;-73
2022/06/29 08:16:27;;;;;;;;;2.00;2.00;;;;;22.21;42.63;101043.44;5035761;28;46419;-73
2022/06/29 08:18:52;;;;;;;;;1.50;0.75;;;;;22.26;42.49;101049.38;5035867;28;45587;-73
2022/06/29 08:21:18;;;;;;;;;3.75;1.00;;;;;22.21;42.41;101037.13;5035461;28;45381;-72
2022/06/29 08:23:43;;;;;;;;;1.00;1.00;;;;;22.28;42.54;101043.78;5036057;28;45529;-73
2022/06/29 08:26:08;;;;;;;;;1.00;1.00;;;;;22.31;43.17;101034.44;5035907;28;45411;-72
2022/06/29 08:28:34;;;;;;;;;0.00;0.00;;;;;22.34;42.92;101031.44;5017827;28;45401;-74
2022/06/29 08:30:59;;;;;;;;;0.50;0.50;;;;;22.33;42.71;101018.78;5035955;28;45229;-72
2022/06/29 08:33:24;;;;;;;;;2.00;1.25;;;;;22.38;42.25;101024.66;5035696;28;45210;-73
2022/06/29 08:35:50;;;;;;;;;0.25;0.25;;;;;22.37;42.47;101022.97;5035367;28;45364;-72
2022/06/29 08:38:17;;;;;;;;;1.00;1.00;;;;;22.40;42.00;101023.53;5035694;28;45428;-73
2022/06/29 08:40:47;;;;;;;;;2.00;2.00;;;;;22.39;41.72;101031.88;5036041;28;45369;-73
2022/06/29 08:43:16;;;;;;;;;1.25;1.00;;;;;22.30;41.00;101035.44;5035916;28;45350;-73
2022/06/29 08:45:43;;;;;;;;;1.00;1.00;;;;;22.25;40.75;101023.06;5036216;28;45323;-72
2022/06/29 08:48:10;;;;;;;;;1.00;1.00;;;;;22.31;40.78;101038.03;5035722;28;45417;-74
2022/06/29 08:50:38;;;;;;;;;1.00;1.00;;;;;22.29;41.17;101034.56;5035439;28;45222;-74
2022/06/29 08:53:06;;;;;;;;;1.50;1.25;;;;;22.29;40.71;101041.91;5035139;28;45155;-72
2022/06/29 08:55:36;;;;;;;;;1.25;1.00;;;;;22.26;41.02;101045.78;5016815;28;47141;-72
2022/06/29 08:58:02;;;;;;;;;1.75;1.75;;;;;22.23;41.07;101037.84;5035278;28;45345;-72
2022/06/29 09:00:28;;;;;;;;;2.25;1.25;;;;;22.23;41.19;101038.72;5035416;28;45520;-71
2022/06/29 09:02:54;;;;;;;;;2.00;2.00;;;;;22.32;40.84;101038.88;5035162;28;45467;-71
2022/06/29 09:05:19;;;;;;;;;2.00;2.00;;;;;22.36;41.26;101043.09;5017242;28;47059;-73
2022/06/29 09:07:44;;;;;;;;;3.00;2.00;;;;;22.41;41.06;101032.59;5034885;28;45319;-72
2022/06/29 09:10:12;;;;;;;;;0.00;0.00;;;;;22.41;40.62;101038.06;5035239;28;45487;-73
2022/06/29 09:12:38;;;;;;;;;0.00;0.00;;;;;22.39;40.85;101043.66;5034818;28;45564;-72
2022/06/29 09:15:06;;;;;;;;;1.50;1.50;;;;;22.36;40.87;101032.16;5034938;28;46347;-73
2022/06/29 09:17:33;;;;;;;;;1.50;1.50;;;;;22.42;40.33;101037.94;5034558;28;45474;-72
2022/06/29 09:19:58;;;;;;;;;1.50;1.50;;;;;22.43;40.50;101044.25;5034897;28;45185;-73
2022/06/29 09:22:24;;;;;;;;;1.00;1.00;;;;;22.37;40.48;101037.47;5034509;28;45546;-74
2022/06/29 09:24:50;;;;;;;;;2.50;1.75;;;;;22.37;39.97;101047.56;5034762;28;45367;-74
2022/06/29 09:27:15;;;;;;;;;2.00;0.50;;;;;22.39;40.69;101046.38;5034553;28;45982;-73
2022/06/29 09:29:42;;;;;;;;;1.25;1.25;;;;;22.41;40.95;101044.38;5035074;28;45399;-72
2022/06/29 09:32:09;;;;;;;;;3.00;1.00;;;;;22.43;40.42;101056.06;5033070;28;45437;-73
2022/06/29 09:34:34;;;;;;;;;2.75;1.00;;;;;22.44;40.24;101065.97;5034127;28;46136;-72
2022/06/29 09:37:01;;;;;;;;;1.00;1.00;;;;;22.41;40.50;101058.06;5034320;28;45446;-73
2022/06/29 09:39:56;;;;;;;;;3.00;2.00;;;;;22.51;40.68;101052.63;5034837;28;45432;-73
2022/06/29 09:42:28;;;;;;;;;1.00;1.00;;;;;22.49;40.28;101051.88;5025418;28;45632;-72
2022/06/29 09:44:54;;;;;;;;;1.75;1.75;;;;;22.51;39.87;101055.34;5034421;28;45371;-74
2022/06/29 09:47:22;;;;;;;;;1.00;1.00;;;;;22.41;40.04;101035.34;5033173;28;45371;-72
2022/06/29 09:49:59;;;;;;;;;1.75;1.75;;;;;22.49;39.98;101052.75;5034247;28;45443;-73
2022/06/29 09:52:25;;;;;;;;;4.00;1.50;;;;;22.41;40.37;101032.59;5034250;28;45233;-72
2022/06/29 09:54:56;;;;;;;;;2.75;1.00;;;;;22.43;40.24;101036.94;5034138;28;46145;-72
2022/06/29 09:57:25;;;;;;;;;3.00;1.50;;;;;22.53;40.23;101065.16;5034283;28;45447;-72
2022/06/29 10:02:37;;;;;;;;;5.75;2.25;;;;;22.49;40.26;101028.16;5047096;28;45405;-74
2022/06/29 10:05:08;;;;;;;;;0.50;0.50;;;;;22.65;40.64;101036.69;5034122;28;46096;-74
2022/06/29 10:07:37;;;;;;;;;3.00;1.00;;;;;22.68;39.97;101032.81;5034085;28;45328;-74
2022/06/29 10:10:06;;;;;;;;;3.50;1.50;;;;;22.80;40.48;101037.16;5034327;28;45313;-73
2022/06/29 10:16:05;;;;;;;;;2.00;2.00;;;;;22.85;38.65;101036.75;5034081;28;45395;-73
2022/06/29 10:19:01;;;;;;;;;1.75;1.75;;;;;22.92;39.82;101036.03;5034102;28;45154;-72
2022/06/29 10:21:31;;;;;;;;;4.00;1.75;;;;;22.95;39.34;101033.03;5034012;28;45392;-72
2022/06/29 10:24:03;;;;;;;;;1.25;1.25;;;;;22.89;37.56;101030.84;5015660;28;46380;-71
2022/06/29 10:26:32;;;;;;;;;4.00;1.75;;;;;22.90;37.05;101027.09;5034089;28;46032;-73
2022/06/29 10:29:06;;;;;;;;;2.00;2.00;;;;;22.89;37.79;101022.63;5033739;28;45427;-73
2022/06/29 10:32:00;;;;;;;;;1.25;1.25;;;;;22.92;37.63;101010.56;5033830;28;45380;-72
2022/06/29 10:34:31;;;;;;;;;2.50;2.50;;;;;22.95;37.42;101010.28;5033812;28;45283;-72
2022/06/29 10:37:01;;;;;;;;;1.25;1.25;;;;;22.95;37.04;101011.16;5033795;28;45331;-72
2022/06/29 10:39:50;;;;;;;;;1.00;1.00;;;;;22.88;36.95;100982.63;5034011;28;45320;-73
2022/06/29 10:45:15;;;;;;;;;1.00;1.00;;;;;23.06;36.43;101004.66;5037090;28;45277;-73
2022/06/29 10:47:44;;;;;;;;;1.00;1.00;;;;;23.05;35.30;101010.28;5019313;28;46151;-73
2022/06/29 10:50:20;;;;;;;;;1.50;1.50;;;;;23.09;34.84;100998.03;5036849;28;45311;-72
2022/06/29 10:52:47;;;;;;;;;2.00;0.25;;;;;23.11;35.40;100996.03;5037139;28;45518;-72
2022/06/29 10:55:14;;;;;;;;;2.50;2.50;;;;;23.11;36.31;100999.63;5036882;28;45978;-70
2022/06/29 10:57:44;;;;;;;;;1.50;1.50;;;;;23.13;36.24;100992.16;5036838;28;45329;-70
2022/06/29 11:00:16;;;;;;;;;0.00;0.00;;;;;23.22;34.01;100999.47;5037350;28;45430;-72
2022/06/29 11:02:43;;;;;;;;;1.00;1.00;;;;;23.30;34.81;100996.88;5037301;28;45360;-72
2022/06/29 11:05:09;;;;;;;;;1.00;1.00;;;;;23.36;35.32;100982.63;5036688;28;45445;-73
2022/06/29 11:13:03;;;;;;;;;1.00;1.00;;;;;23.51;34.18;100991.25;5037240;28;45511;-72
2022/06/29 11:15:40;;;;;;;;;1.75;1.75;;;;;23.52;35.26;100967.47;5036706;28;45544;-72
2022/06/29 11:18:08;;;;;;;;;1.50;1.50;;;;;23.61;35.56;100958.38;5037035;28;46256;-74
2022/06/29 11:20:34;;;;;;;;;1.00;1.00;;;;;23.71;33.72;100978.38;5036505;28;45348;-71
2022/06/29 11:22:59;;;;;;;;;1.50;1.50;;;;;23.75;34.46;100969.72;5037076;28;45171;-72
2022/06/29 11:25:26;;;;;;;;;1.00;1.00;;;;;23.89;35.71;100965.63;5036634;28;45222;-72
2022/06/29 11:27:52;;;;;;;;;2.00;2.00;;;;;24.02;34.92;100955.19;5035335;28;46172;-72
2022/06/29 11:30:22;;;;;;;;;1.25;0.75;;;;;24.12;34.30;100963.34;5036650;28;45530;-72
2022/06/29 11:32:49;;;;;;;;;1.00;0.75;;;;;24.21;34.31;100969.81;5036781;28;45356;-72
2022/06/29 11:35:17;;;;;;;;;1.00;1.00;;;;;24.24;34.13;100967.66;5036654;28;45557;-72
2022/06/29 11:37:48;;;;;;;;;0.00;0.00;;;;;24.20;34.32;100963.44;5036579;28;45326;-71
2022/06/29 11:40:14;;;;;;;;;1.00;1.00;;;;;24.27;34.42;100970.06;5036252;28;45348;-73
2022/06/29 11:45:34;;;;;;;;;2.00;0.75;;;;;24.42;33.78;100954.81;5036408;28;45392;-72
2022/06/29 11:48:00;;;;;;;;;1.00;1.00;;;;;24.60;34.02;100963.06;5018329;28;46517;-72
2022/06/29 11:50:25;;;;;;;;;1.00;1.00;;;;;24.49;33.75;100942.25;5036397;28;45257;-72
2022/06/29 11:52:51;;;;;;;;;3.00;2.00;;;;;24.60;34.01;100965.81;5036504;28;45463;-71
2022/06/29 11:55:40;;;;;;;;;0.50;0.50;;;;;24.63;34.89;100964.66;5035383;28;45428;-73
2022/06/29 11:58:09;;;;;;;;;1.75;1.75;;;;;24.72;34.10;100955.50;5036373;28;46487;-73
2022/06/29 12:00:37;;;;;;;;;2.75;0.75;;;;;24.78;34.68;100946.63;5036115;28;45283;-72
2022/06/29 12:03:03;;;;;;;;;1.75;1.75;;;;;24.81;34.26;100930.72;5036112;28;45339;-73
2022/06/29 12:05:29;;;;;;;;;1.25;1.25;;;;;25.04;34.33;100938.50;5035930;28;45384;-73
2022/06/29 12:07:54;;;;;;;;;0.50;0.50;;;;;25.05;33.49;100929.25;5035916;28;45445;-73
2022/06/29 12:10:19;;;;;;;;;1.00;1.00;;;;;25.19;33.33;100939.63;5036018;28;45412;-73
2022/06/29 12:12:45;;;;;;;;;0.00;0.00;;;;;25.29;33.07;100934.03;5036168;28;45319;-75
2022/06/29 12:15:10;;;;;;;;;1.00;1.00;;;;;25.38;33.46;100922.97;5036045;28;45540;-73
2022/06/29 12:17:37;;;;;;;;;2.00;0.75;;;;;25.55;33.53;100916.56;5035867;28;46069;-72
2022/06/29 12:20:03;;;;;;;;;0.50;0.50;;;;;25.84;32.66;100913.50;5035735;28;45340;-72
2022/06/29 12:22:29;;;;;;;;;2.00;1.50;;;;;26.03;32.72;100912.34;5035759;28;45553;-72
2022/06/29 12:24:54;;;;;;;;;1.00;1.00;;;;;26.13;32.01;100915.81;5036135;28;45396;-73
2022/06/29 12:27:19;;;;;;;;;1.50;1.00;;;;;26.17;31.26;100930.97;5035907;28;46353;-71
2022/06/29 12:29:45;;;;;;;;;1.75;1.75;;;;;26.18;32.52;100918.94;5036183;28;45344;-72
2022/06/29 12:32:10;;;;;;;;;0.50;0.50;;;;;26.36;32.02;100907.88;5036178;28;45505;-73
2022/06/29 12:34:35;;;;;;;;;0.75;0.75;;;;;26.57;31.87;100904.63;5035724;28;45214;-72
2022/06/29 12:37:03;;;;;;;;;1.75;1.75;;;;;26.56;31.03;100898.25;5035660;28;45744;-73
2022/06/29 12:39:30;;;;;;;;;2.00;2.00;;;;;26.59;32.12;100905.31;5035560;28;45771;-71
2022/06/29 12:41:55;;;;;;;;;2.00;2.00;;;;;26.51;31.35;100888.81;5035620;28;45368;-73
2022/06/29 12:44:21;;;;;;;;;3.25;1.25;;;;;26.57;31.74;100888.13;5017633;28;46060;-72
2022/06/29 12:46:47;;;;;;;;;2.25;1.00;;;;;26.66;31.69;100887.09;5035367;28;45448;-73
2022/06/29 12:49:12;;;;;;;;;1.50;1.50;;;;;26.73;31.06;100890.88;5034277;28;45392;-72
2022/06/29 12:51:37;;;;;;;;;0.75;0.75;;;;;26.77;32.07;100884.00;5028943;28;47531;-70
2022/06/29 12:54:03;;;;;;;;;2.00;2.00;;;;;26.77;31.78;100891.41;5027070;28;45443;-70
2022/06/29 12:56:28;;;;;;;;;1.00;1.00;;;;;26.77;31.85;100885.91;5028722;28;46134;-71
2022/06/29 12:58:54;;;;;;;;;2.25;1.00;;;;;26.79;31.79;100886.59;5034825;28;45360;-69
2022/06/29 13:01:19;;;;;;;;;1.75;1.75;;;;;26.85;32.11;100883.16;5025437;28;45286;-70
2022/06/29 13:03:45;;;;;;;;;0.75;0.75;;;;;26.90;31.97;100878.84;5036509;28;45335;-70
2022/06/29 13:06:10;;;;;;;;;1.00;1.00;;;;;27.03;32.20;100879.22;5036930;28;46351;-70
2022/06/29 13:08:36;;;;;;;;;1.50;0.50;;;;;27.05;31.27;100879.88;5034724;28;45586;-70
2022/06/29 13:11:01;;;;;;;;;1.00;1.00;;;;;27.00;31.14;100881.44;5032938;28;45732;-70
2022/06/29 13:13:27;;;;;;;;;1.00;1.00;;;;;27.02;31.20;100880.25;5034904;28;46159;-70
2022/06/29 13:15:53;;;;;;;;;1.00;1.00;;;;;27.10;31.73;100868.38;5015846;28;45506;-69
2022/06/29 13:18:18;;;;;;;;;1.00;1.00;;;;;27.15;31.81;100871.44;5034406;28;45530;-69
2022/06/29 13:20:44;;;;;;;;;1.00;1.00;;;;;27.23;31.50;100862.31;5028140;28;45569;-69
2022/06/29 13:23:10;;;;;;;;;2.00;2.00;;;;;27.25;31.57;100874.88;5044161;28;45533;-73
2022/06/29 13:25:36;;;;;;;;;1.00;0.75;;;;;27.22;31.43;100852.38;5011498;28;46444;-70
2022/06/29 13:28:02;;;;;;;;;0.75;0.75;;;;;27.26;31.53;100870.22;5033056;28;45520;-69
2022/06/29 13:30:27;;;;;;;;;2.25;1.00;;;;;27.25;31.04;100861.13;5045526;28;45429;-70
2022/06/29 13:32:53;;;;;;;;;1.00;1.00;;;;;27.34;30.69;100865.56;5034404;28;45500;-70
2022/06/29 13:35:19;;;;;;;;;0.75;0.75;;;;;27.42;30.80;100856.41;5034505;28;46568;-70
2022/06/29 13:37:44;;;;;;;;;0.75;0.75;;;;;27.54;31.24;100846.78;5033658;28;45715;-70
2022/06/29 13:40:10;;;;;;;;;0.75;0.75;;;;;27.52;30.93;100847.97;5034446;28;45508;-71
2022/06/29 13:42:36;;;;;;;;;0.75;0.75;;;;;27.54;31.69;100846.78;5034379;28;45565;-71
2022/06/29 13:45:01;;;;;;;;;0.50;0.50;;;;;27.56;31.66;100852.13;5034137;28;45559;-71
2022/06/29 13:47:26;;;;;;;;;2.25;1.75;;;;;27.61;31.29;100838.66;5034650;28;45494;-70
2022/06/29 13:49:52;;;;;;;;;1.00;1.00;;;;;27.71;31.40;100837.41;5033920;28;45423;-70
2022/06/29 13:52:17;;;;;;;;;2.50;1.75;;;;;27.84;31.60;100834.94;5034313;28;45604;-69
2022/06/29 13:54:42;;;;;;;;;1.25;0.50;;;;;27.92;30.88;100841.44;5033843;28;46157;-71
2022/06/29 13:57:08;;;;;;;;;1.75;1.25;;;;;27.92;31.17;100828.50;5033712;28;45388;-70
2022/06/29 13:59:33;;;;;;;;;0.25;0.25;;;;;27.97;31.49;100819.72;5034345;28;45323;-69
2022/06/29 14:02:02;;;;;;;;;2.50;1.75;;;;;28.08;31.42;100822.91;5034655;28;45390;-71
2022/06/29 14:04:28;;;;;;;;;0.50;0.00;;;;;28.29;31.06;100830.56;5033771;28;46832;-69
2022/06/29 14:06:53;;;;;;;;;2.75;2.75;;;;;28.39;31.48;100842.22;5033893;28;45300;-69
2022/06/29 14:09:19;;;;;;;;;2.00;1.00;;;;;28.37;31.19;100822.22;5034064;28;45345;-70
2022/06/29 14:11:44;;;;;;;;;1.50;1.50;;;;;28.41;30.85;100836.53;5033650;28;45491;-71
2022/06/29 14:14:09;;;;;;;;;0.75;0.75;;;;;28.26;30.69;100822.66;5033799;28;45653;-72
2022/06/29 14:16:35;;;;;;;;;1.75;1.75;;;;;28.21;31.05;100809.44;5033952;28;45328;-71
2022/06/29 14:19:00;;;;;;;;;2.00;1.25;;;;;28.26;31.23;100810.75;5033336;28;47383;-71
2022/06/29 14:21:26;;;;;;;;;1.75;1.75;;;;;28.38;31.44;100810.16;5033996;28;45306;-71
2022/06/29 14:23:51;;;;;;;;;2.00;1.00;;;;;28.55;30.86;100811.75;5033667;28;46055;-70
2022/06/29 14:26:17;;;;;;;;;1.00;1.00;;;;;28.64;30.75;100797.88;5033907;28;45370;-70
2022/06/29 14:28:42;;;;;;;;;1.25;0.75;;;;;28.59;31.03;100817.75;5015872;28;45388;-70
2022/06/29 14:31:09;;;;;;;;;0.75;0.75;;;;;28.54;30.91;100815.56;5033535;28;45340;-69
2022/06/29 14:33:35;;;;;;;;;1.00;1.00;;;;;28.40;30.54;100813.59;5033381;28;47285;-71
2022/06/29 14:36:00;;;;;;;;;1.00;1.00;;;;;28.36;31.09;100797.59;5015343;28;45372;-69
2022/06/29 14:38:26;;;;;;;;;2.00;0.75;;;;;28.26;30.85;100794.22;5033625;28;45320;-71
2022/06/29 14:40:51;;;;;;;;;1.50;1.50;;;;;28.21;30.47;100790.13;5033776;28;45385;-69
2022/06/29 14:43:17;;;;;;;;;0.75;0.75;;;;;28.25;30.61;100793.34;5032962;28;46480;-70
2022/06/29 14:45:43;;;;;;;;;1.25;0.75;;;;;28.24;30.42;100788.91;5033421;28;45295;-71
2022/06/29 14:48:08;;;;;;;;;2.00;1.00;;;;;28.42;30.73;100797.72;5032576;28;45342;-70
2022/06/29 14:50:35;;;;;;;;;1.00;1.00;;;;;28.54;30.82;100779.69;5021481;28;45347;-70
2022/06/29 14:53:01;;;;;;;;;1.25;1.25;;;;;28.56;30.21;100772.09;5033514;28;46023;-70
2022/06/29 14:55:27;;;;;;;;;1.00;1.00;;;;;28.51;29.75;100795.75;5033489;28;45564;-68
2022/06/29 14:57:52;;;;;;;;;0.00;0.00;;;;;28.37;30.10;100780.88;5031972;28;45498;-70
2022/06/29 15:00:18;;;;;;;;;0.75;0.75;;;;;28.44;31.09;100784.59;5033408;28;45414;-70
2022/06/29 15:02:43;;;;;;;;;0.75;0.75;;;;;28.60;30.28;100778.06;5033154;28;45396;-70
2022/06/29 15:05:09;;;;;;;;;1.75;1.00;;;;;28.71;30.80;100785.91;5033651;28;45350;-71
2022/06/29 15:07:34;;;;;;;;;2.00;0.75;;;;;28.90;30.44;100779.91;5033593;28;45356;-71
2022/06/29 15:10:03;;;;;;;;;2.00;2.00;;;;;28.94;30.34;100777.59;5033403;28;45401;-71
2022/06/29 15:12:29;;;;;;;;;0.50;0.50;;;;;28.77;30.52;100756.72;5033088;28;45349;-70
2022/06/29 15:14:54;;;;;;;;;0.25;0.25;;;;;28.81;30.23;100769.13;5033221;28;45423;-71
2022/06/29 15:17:20;;;;;;;;;2.75;1.50;;;;;28.80;30.74;100770.16;5033051;28;45361;-71
2022/06/29 15:19:45;;;;;;;;;2.00;0.75;;;;;28.69;30.51;100778.84;5033291;28;46390;-70
2022/06/29 15:22:11;;;;;;;;;0.75;0.75;;;;;28.64;30.50;100782.19;5033050;28;46401;-70
2022/06/29 15:24:36;;;;;;;;;1.50;1.50;;;;;28.52;30.70;100765.22;5033221;28;45193;-71
2022/06/29 15:27:02;;;;;;;;;0.75;0.75;;;;;28.55;30.35;100770.38;5033245;28;45463;-70
2022/06/29 15:29:27;;;;;;;;;1.00;1.00;;;;;28.57;30.19;100759.16;5033575;28;45469;-70
2022/06/29 15:31:57;;;;;;;;;1.50;0.50;;;;;28.68;30.44;100766.09;5036264;28;46309;-72
2022/06/29 15:39:50;;;;;;;;;2.00;1.50;;;;;28.88;30.53;100740.59;5036327;28;45309;-70
2022/06/29 15:42:16;;;;;;;;;2.00;2.00;;;;;29.08;30.02;100751.06;5036254;28;45368;-70
2022/06/29 15:44:41;;;;;;;;;2.00;1.00;;;;;29.21;29.47;100754.88;5036515;28;45266;-70
2022/06/29 15:47:07;;;;;;;;;2.00;1.00;;;;;29.38;29.77;100758.31;5036721;28;45163;-70
2022/06/29 15:49:32;;;;;;;;;0.75;0.75;;;;;29.52;29.64;100753.84;5036191;28;45576;-70
2022/06/29 15:51:57;;;;;;;;;0.00;0.00;;;;;29.61;29.43;100742.44;5036157;28;45427;-69
2022/06/29 15:57:06;;;;;;;;;0.75;0.75;;;;;29.89;28.95;100741.72;5025579;28;45339;-70
2022/06/29 15:59:32;;;;;;;;;0.75;0.75;;;;;29.91;28.69;100731.31;5036097;28;45646;-71
2022/06/29 16:01:57;;;;;;;;;1.00;1.00;;;;;30.01;28.97;100731.91;5045346;28;45517;-71
2022/06/29 16:04:23;;;;;;;;;4.00;1.00;;;;;29.98;29.27;100743.34;5039784;28;45239;-71
2022/06/29 16:06:48;;;;;;;;;1.75;0.25;;;;;29.92;28.80;100733.03;5035749;28;45376;-74
2022/06/29 16:09:13;;;;;;;;;1.00;1.00;;;;;29.96;29.47;100735.22;5035538;28;45213;-68
2022/06/29 16:14:23;;;;;;;;;3.75;0.00;;;;;30.27;28.56;100739.59;5035618;28;45340;-71
2022/06/29 16:16:48;;;;;;;;;0.75;0.75;;;;;30.12;28.24;100742.41;5035224;28;45392;-70
2022/06/29 16:19:14;;;;;;;;;2.00;1.00;;;;;29.92;28.78;100728.38;5035458;28;45450;-71